Time;durP1;ratioP1;P1;durP2;ratioP2;P2;SDS_P1;SDS_P2;PMS_P1;PMS_P2;Temp;Humidity;BMP_temperature;BMP_pressure;BME280_temperature;BME280_humidity;BME280_pressure;Samples;Min_cycle;Max_cycle;Signal;HPM_P1;HPM_P2
2021/08/24 00:00:28;;;;;;;47.35;9.70;;;;;;;12.42;100.00;101135.23;1738627;82;21253;-40
2021/08/24 00:02:56;;;;;;;30.75;8.65;;;;;;;12.37;100.00;101132.70;1730056;82;22307;-40
2021/08/24 00:05:30;;;;;;;33.75;8.33;;;;;;;12.34;100.00;101137.95;1718618;82;21496;-40
2021/08/24 00:07:57;;;;;;;36.93;8.93;;;;;;;12.30;100.00;101134.98;1733404;82;20947;-40
2021/08/24 00:10:29;;;;;;;40.17;9.45;;;;;;;12.29;100.00;101137.16;1733000;82;21231;-40
2021/08/24 00:12:57;;;;;;;41.98;8.90;;;;;;;12.27;100.00;101137.63;1731363;82;21011;-42
2021/08/24 00:15:24;;;;;;;23.27;9.18;;;;;;;12.25;100.00;101132.91;1723406;82;21034;-40
2021/08/24 00:17:51;;;;;;;31.60;8.55;;;;;;;12.23;100.00;101136.80;1730706;82;20975;-42
2021/08/24 00:20:17;;;;;;;27.73;8.50;;;;;;;12.23;100.00;101130.31;1735073;81;20936;-41
2021/08/24 00:22:44;;;;;;;43.55;9.20;;;;;;;12.21;100.00;101129.48;1685391;82;21668;-39
2021/08/24 00:25:12;;;;;;;27.15;8.98;;;;;;;12.19;100.00;101123.03;1733560;82;21041;-40
2021/08/24 00:27:39;;;;;;;22.65;8.83;;;;;;;12.20;100.00;101125.17;1730883;81;21007;-40
2021/08/24 00:30:06;;;;;;;32.53;8.50;;;;;;;12.16;100.00;101126.97;1731475;82;21021;-39
2021/08/24 00:32:33;;;;;;;24.40;9.25;;;;;;;12.12;100.00;101122.68;1736115;81;21541;-39
2021/08/24 00:35:00;;;;;;;25.05;8.33;;;;;;;12.12;100.00;101127.03;1748132;82;21193;-40
2021/08/24 00:37:26;;;;;;;23.25;8.70;;;;;;;12.07;100.00;101125.36;1719770;82;20904;-40
2021/08/24 00:39:52;;;;;;;35.55;9.18;;;;;;;12.05;100.00;101124.53;1722404;82;21058;-42
2021/08/24 00:42:20;;;;;;;24.77;8.68;;;;;;;12.01;100.00;101122.86;1729591;82;21034;-40
2021/08/24 00:44:48;;;;;;;19.77;8.38;;;;;;;11.99;100.00;101120.66;1718596;82;20967;-39
2021/08/24 00:47:20;;;;;;;19.12;8.53;;;;;;;11.97;100.00;101120.28;1725954;82;21385;-41
2021/08/24 00:49:47;;;;;;;27.42;9.28;;;;;;;11.92;100.00;101118.62;1720546;82;22204;-41
2021/08/24 00:52:17;;;;;;;39.25;10.55;;;;;;;11.88;100.00;101123.44;1711903;82;20984;-42
2021/08/24 00:54:44;;;;;;;32.53;9.78;;;;;;;11.87;100.00;101123.02;1708403;82;21625;-40
2021/08/24 00:57:15;;;;;;;19.82;9.10;;;;;;;11.84;100.00;101122.19;1718513;82;21068;-39
2021/08/24 00:59:42;;;;;;;25.00;9.00;;;;;;;11.81;100.00;101117.05;1729427;82;21201;-40
2021/08/24 01:02:12;;;;;;;21.80;8.28;;;;;;;11.78;100.00;101120.52;1726598;82;21000;-39
2021/08/24 01:04:38;;;;;;;19.67;9.25;;;;;;;11.76;100.00;101120.56;1722169;81;21502;-41
2021/08/24 01:07:21;;;;;;;25.17;9.43;;;;;;;11.75;100.00;101118.84;1725053;82;21016;-39
2021/08/24 01:10:17;;;;;;;33.90;9.35;;;;;;;11.72;100.00;101116.27;1705629;82;21020;-41
2021/08/24 01:12:55;;;;;;;31.95;9.23;;;;;;;11.71;100.00;101121.03;1718541;82;21804;-41
2021/08/24 01:15:48;;;;;;;27.55;8.93;;;;;;;11.70;100.00;101128.39;1698240;82;20956;-40
2021/08/24 01:18:40;;;;;;;23.02;8.58;;;;;;;11.71;100.00;101124.92;1730370;82;22298;-42
2021/08/24 01:21:43;;;;;;;29.18;8.60;;;;;;;11.72;100.00;101123.20;1718298;82;21706;-42
2021/08/24 01:24:24;;;;;;;43.00;9.78;;;;;;;11.75;100.00;101124.45;1704927;82;21498;-40
2021/08/24 01:27:10;;;;;;;31.45;8.80;;;;;;;11.75;100.00;101116.25;1696682;82;21105;-42
2021/08/24 01:30:21;;;;;;;23.77;9.70;;;;;;;11.76;100.00;101123.16;1712097;82;22196;-43
2021/08/24 01:33:12;;;;;;;19.48;8.88;;;;;;;11.74;100.00;101114.50;1705749;82;21528;-40
2021/08/24 01:36:10;;;;;;;34.15;9.35;;;;;;;11.76;100.00;101115.80;1709261;82;21000;-39
2021/08/24 01:38:54;;;;;;;36.20;9.60;;;;;;;11.74;100.00;101113.20;1717952;82;21023;-39
2021/08/24 01:41:33;;;;;;;24.07;9.95;;;;;;;11.74;100.00;101112.37;1727629;82;21144;-42
2021/08/24 01:44:17;;;;;;;15.98;9.63;;;;;;;11.71;100.00;101110.66;1717641;82;21561;-40
2021/08/24 01:47:11;;;;;;;19.30;9.68;;;;;;;11.69;100.00;101109.82;1723866;82;20976;-41
2021/08/24 01:49:53;;;;;;;23.65;9.28;;;;;;;11.68;100.00;101107.27;1706636;81;22139;-39
2021/08/24 01:52:22;;;;;;;30.12;10.05;;;;;;;11.68;100.00;101113.75;1709485;82;21007;-39
2021/08/24 01:54:57;;;;;;;27.13;10.08;;;;;;;11.69;100.00;101112.42;1715917;82;21094;-40
2021/08/24 01:57:29;;;;;;;24.25;10.40;;;;;;;11.68;100.00;101110.70;1725202;82;20942;-41
2021/08/24 02:00:11;;;;;;;24.50;10.38;;;;;;;11.68;100.00;101111.16;1715963;81;21023;-39
2021/08/24 02:02:46;;;;;;;19.90;10.30;;;;;;;11.64;100.00;101114.22;1722906;82;21498;-42
2021/08/24 02:05:29;;;;;;;25.37;9.70;;;;;;;11.61;100.00;101106.48;1730233;82;21617;-40
2021/08/24 02:08:03;;;;;;;22.42;10.45;;;;;;;11.58;100.00;101120.78;1718584;82;21177;-40
2021/08/24 02:10:30;;;;;;;24.25;10.30;;;;;;;11.55;100.00;101115.63;1722790;82;20983;-42
2021/08/24 02:12:56;;;;;;;24.50;10.68;;;;;;;11.54;100.00;101120.41;1716735;82;21791;-39
2021/08/24 02:15:36;;;;;;;26.95;11.15;;;;;;;11.49;100.00;101113.97;1715967;82;21605;-45
2021/08/24 02:18:02;;;;;;;24.45;10.82;;;;;;;11.46;100.00;101112.25;1714260;82;20975;-43
2021/08/24 02:20:41;;;;;;;28.17;9.83;;;;;;;11.45;100.00;101102.77;1741187;82;22181;-40
2021/08/24 02:23:12;;;;;;;34.75;10.68;;;;;;;11.44;100.00;101104.09;1736980;82;21015;-41
2021/08/24 02:25:42;;;;;;;30.35;11.38;;;;;;;11.43;100.00;101105.81;1715765;82;21538;-40
2021/08/24 02:28:18;;;;;;;20.85;10.85;;;;;;;11.43;100.00;101109.70;1725657;82;21023;-43
2021/08/24 02:30:49;;;;;;;28.38;10.80;;;;;;;11.42;100.00;101110.58;1734361;82;21576;-42
2021/08/24 02:33:16;;;;;;;31.40;10.38;;;;;;;11.43;100.00;101116.18;1729966;82;21182;-42
2021/08/24 02:35:53;;;;;;;26.12;9.83;;;;;;;11.43;100.00;101117.48;1688478;82;21003;-42
2021/08/24 02:38:27;;;;;;;26.75;10.00;;;;;;;11.45;100.00;101123.50;1726274;82;21590;-42
2021/08/24 02:41:02;;;;;;;25.50;10.38;;;;;;;11.49;100.00;101117.43;1732309;82;20925;-42
2021/08/24 02:43:44;;;;;;;18.27;9.43;;;;;;;11.53;100.00;101113.05;1728367;82;21097;-41
2021/08/24 02:46:23;;;;;;;19.40;9.73;;;;;;;11.54;100.00;101113.92;1718192;82;21113;-40
2021/08/24 02:48:59;;;;;;;25.27;10.05;;;;;;;11.53;100.00;101111.75;1717956;82;21525;-40
2021/08/24 02:51:27;;;;;;;17.77;10.03;;;;;;;11.52;100.00;101110.48;1718263;82;21055;-40
2021/08/24 02:53:59;;;;;;;24.27;10.20;;;;;;;11.49;100.00;101108.36;1728202;81;21015;-45
2021/08/24 02:56:25;;;;;;;24.55;9.53;;;;;;;11.49;100.00;101108.36;1731198;82;20971;-39
2021/08/24 02:58:52;;;;;;;16.52;10.35;;;;;;;11.49;100.00;101108.36;1729604;82;21233;-39
2021/08/24 03:01:20;;;;;;;19.75;9.73;;;;;;;11.49;100.00;101109.66;1718861;82;21588;-41
2021/08/24 03:03:48;;;;;;;18.52;8.58;;;;;;;11.49;100.00;101104.47;1709983;82;20991;-42
2021/08/24 03:06:14;;;;;;;21.95;8.58;;;;;;;11.49;100.00;101108.36;1741028;80;20987;-41
2021/08/24 03:08:41;;;;;;;20.85;9.43;;;;;;;11.51;100.00;101105.73;1730973;82;21019;-40
2021/08/24 03:11:08;;;;;;;16.17;8.78;;;;;;;11.53;100.00;101103.13;1729042;82;21073;-43
2021/08/24 03:13:45;;;;;;;14.55;8.60;;;;;;;11.57;100.00;101106.09;1726059;82;21026;-42
2021/08/24 03:16:18;;;;;;;15.93;9.08;;;;;;;11.61;100.00;101112.96;1727615;80;22223;-40
2021/08/24 03:18:49;;;;;;;18.10;8.83;;;;;;;11.65;100.00;101110.74;1730438;82;20979;-42
2021/08/24 03:21:22;;;;;;;18.77;8.30;;;;;;;11.70;100.00;101109.40;1724673;82;20925;-43
2021/08/24 03:23:48;;;;;;;20.92;9.10;;;;;;;11.73;100.00;101106.30;1724573;82;21134;-41
2021/08/24 03:26:29;;;;;;;16.20;8.20;;;;;;;11.77;100.00;101107.14;1741163;82;20967;-42
2021/08/24 03:28:56;;;;;;;18.57;7.60;;;;;;;11.84;100.00;101113.11;1721172;82;20967;-43
2021/08/24 03:31:26;;;;;;;17.35;8.30;;;;;;;11.90;100.00;101110.00;1745006;82;20980;-41
2021/08/24 03:33:51;;;;;;;19.98;8.63;;;;;;;11.97;100.00;101104.72;1741508;81;21534;-41
2021/08/24 03:36:18;;;;;;;19.42;7.85;;;;;;;12.02;100.00;101106.84;1723370;82;21571;-41
2021/08/24 03:38:45;;;;;;;16.52;7.58;;;;;;;12.06;100.00;101102.89;1728291;82;20928;-43
2021/08/24 03:41:11;;;;;;;17.32;7.97;;;;;;;12.14;100.00;101110.99;1719065;82;20967;-40
2021/08/24 03:43:39;;;;;;;11.15;7.33;;;;;;;12.23;100.00;101113.45;1720831;82;20940;-44
2021/08/24 03:46:06;;;;;;;11.55;6.72;;;;;;;12.31;100.00;101114.63;1737395;82;20984;-41
2021/08/24 03:48:32;;;;;;;16.55;6.85;;;;;;;12.39;100.00;101110.63;1736843;81;21209;-41
2021/08/24 03:50:58;;;;;;;14.98;6.62;;;;;;;12.49;100.00;101108.29;1740851;82;20967;-41
2021/08/24 03:53:25;;;;;;;24.90;7.00;;;;;;;12.62;100.00;101110.24;1734217;81;21027;-43
2021/08/24 03:55:51;;;;;;;15.08;6.62;;;;;;;12.75;100.00;101111.77;1713482;82;20952;-40
2021/08/24 03:58:18;;;;;;;11.43;6.20;;;;;;;12.87;100.00;101110.70;1737150;82;20987;-40
2021/08/24 04:00:45;;;;;;;15.25;6.22;;;;;;;13.00;100.00;101111.77;1719995;82;21176;-40
2021/08/24 04:03:12;;;;;;;14.58;7.12;;;;;;;13.13;100.00;101113.27;1726018;82;20979;-42
2021/08/24 04:05:38;;;;;;;10.58;7.30;;;;;;;13.29;100.00;101110.39;1660240;85;21011;-41
2021/08/24 04:08:05;;;;;;;13.15;6.62;;;;;;;13.45;100.00;101109.21;1728582;82;20971;-42
2021/08/24 04:10:33;;;;;;;13.43;6.37;;;;;;;13.64;100.00;101107.55;1735757;82;21690;-41
2021/08/24 04:13:01;;;;;;;11.73;6.75;;;;;;;13.84;100.00;101106.27;1724056;82;21023;-40
2021/08/24 04:15:28;;;;;;;12.75;7.05;;;;;;;14.01;100.00;101107.20;1720772;82;21226;-41
2021/08/24 04:17:56;;;;;;;20.23;6.72;;;;;;;14.19;100.00;101108.09;1732273;82;21417;-42
2021/08/24 04:20:23;;;;;;;16.05;6.30;;;;;;;14.39;100.00;101100.23;1721167;82;21087;-41
2021/08/24 04:22:51;;;;;;;15.55;6.03;;;;;;;14.65;100.00;101107.41;1665092;85;21027;-41
2021/08/24 04:25:18;;;;;;;15.48;6.47;;;;;;;14.90;100.00;101113.33;1701870;82;22247;-39
2021/08/24 04:27:46;;;;;;;12.07;6.30;;;;;;;15.15;100.00;101111.37;1736944;80;20927;-41
2021/08/24 04:30:13;;;;;;;14.65;5.58;;;;;;;15.43;100.00;101112.38;1737649;82;21004;-41
2021/08/24 04:32:43;;;;;;;24.65;7.37;;;;;;;15.72;100.00;101107.59;1741062;82;21494;-39
2021/08/24 04:35:09;;;;;;;18.35;6.50;;;;;;;16.00;100.00;101109.41;1719864;82;20968;-41
2021/08/24 04:37:36;;;;;;;15.55;6.80;;;;;;;16.28;100.00;101110.30;1739745;80;21790;-43
2021/08/24 04:40:04;;;;;;;19.95;7.25;;;;;;;16.57;100.00;101111.11;1696932;82;21022;-43
2021/08/24 04:42:30;;;;;;;29.12;7.60;;;;;;;16.89;100.00;101113.95;1721718;82;21110;-42
2021/08/24 04:44:58;;;;;;;23.75;7.37;;;;;;;17.21;100.00;101110.67;1719215;82;21083;-41
2021/08/24 04:47:25;;;;;;;24.23;8.25;;;;;;;17.56;100.00;101110.77;1736093;82;21006;-41
2021/08/24 04:49:51;;;;;;;19.90;8.30;;;;;;;17.88;99.50;101111.30;1732248;82;21844;-42
2021/08/24 04:52:17;;;;;;;23.90;8.20;;;;;;;18.19;97.55;101108.36;1717920;82;20956;-41
2021/08/24 04:54:44;;;;;;;20.43;7.67;;;;;;;18.47;95.52;101104.61;1720961;82;21644;-41
2021/08/24 04:57:11;;;;;;;19.00;7.12;;;;;;;18.70;93.08;101105.87;1720321;82;22517;-40
2021/08/24 04:59:37;;;;;;;15.72;6.97;;;;;;;18.93;90.66;101105.73;1731531;82;21632;-41
2021/08/24 05:02:04;;;;;;;23.77;7.00;;;;;;;19.19;87.83;101105.08;1744123;82;21117;-41
2021/08/24 05:04:30;;;;;;;22.75;6.87;;;;;;;19.43;84.55;101103.59;1742964;82;21036;-43
2021/08/24 05:06:57;;;;;;;20.43;7.40;;;;;;;19.63;81.53;101105.28;1733285;80;21031;-42
2021/08/24 05:09:23;;;;;;;15.68;7.22;;;;;;;19.79;78.64;101106.73;1719722;82;20992;-41
2021/08/24 05:11:49;;;;;;;24.55;7.33;;;;;;;19.93;76.38;101095.60;1728664;82;20946;-41
2021/08/24 05:14:16;;;;;;;31.12;7.80;;;;;;;20.09;74.73;101104.07;1732188;82;21093;-43
2021/08/24 05:16:42;;;;;;;20.77;6.78;;;;;;;20.22;72.60;101103.02;1731658;82;20979;-41
2021/08/24 05:19:09;;;;;;;25.48;6.78;;;;;;;20.34;71.35;101107.68;1727738;82;21058;-41
2021/08/24 05:21:36;;;;;;;18.05;6.65;;;;;;;20.46;69.79;101102.73;1727487;82;21009;-42
2021/08/24 05:24:03;;;;;;;14.85;5.87;;;;;;;20.55;68.88;101103.56;1695341;82;21715;-40
2021/08/24 05:26:30;;;;;;;20.17;6.28;;;;;;;20.59;68.43;101093.76;1723290;80;21033;-40
2021/08/24 05:28:57;;;;;;;24.47;6.10;;;;;;;20.63;68.11;101101.87;1746218;82;20960;-42
2021/08/24 05:31:23;;;;;;;17.87;6.15;;;;;;;20.60;67.76;101101.58;1724375;82;21044;-42
2021/08/24 05:33:49;;;;;;;25.27;5.70;;;;;;;20.57;67.00;101100.88;1725109;82;20937;-40
2021/08/24 05:36:16;;;;;;;22.55;5.72;;;;;;;20.52;66.98;101095.39;1741876;82;21003;-39
2021/08/24 05:38:42;;;;;;;16.32;5.80;;;;;;;20.46;67.06;101098.34;1712654;82;21165;-40
2021/08/24 05:41:08;;;;;;;29.25;5.67;;;;;;;20.38;66.88;101106.59;1733256;80;21011;-39
2021/08/24 05:43:35;;;;;;;25.55;6.37;;;;;;;20.35;67.22;101103.26;1727910;82;20960;-41
2021/08/24 05:46:06;;;;;;;13.68;5.08;;;;;;;20.30;66.95;101110.05;1728040;82;20980;-40
2021/08/24 05:48:33;;;;;;;15.85;4.80;;;;;;;20.27;66.62;101106.26;1741727;81;21102;-39
2021/08/24 05:51:00;;;;;;;19.50;6.35;;;;;;;20.22;66.94;101113.52;1732838;82;22233;-42
2021/08/24 05:53:26;;;;;;;21.95;5.12;;;;;;;20.12;66.32;101114.91;1717018;82;21550;-40
2021/08/24 05:55:53;;;;;;;12.35;4.97;;;;;;;20.03;67.13;101113.09;1733825;82;21605;-41
2021/08/24 05:58:19;;;;;;;14.28;5.58;;;;;;;20.02;67.11;101115.81;1702999;82;21470;-40
2021/08/24 06:00:46;;;;;;;20.68;5.47;;;;;;;20.02;67.32;101110.55;1724865;82;20963;-40
2021/08/24 06:03:12;;;;;;;15.30;4.05;;;;;;;20.01;66.50;101111.48;1695201;82;21126;-42
2021/08/24 06:05:39;;;;;;;14.07;5.97;;;;;;;20.03;66.51;101113.57;1720530;82;21102;-39
2021/08/24 06:08:06;;;;;;;13.00;4.60;;;;;;;20.05;66.84;101118.28;1714964;82;20924;-39
2021/08/24 06:10:39;;;;;;;13.30;4.53;;;;;;;20.06;65.71;101116.05;1721625;82;21059;-41
2021/08/24 06:13:06;;;;;;;14.83;3.75;;;;;;;20.09;64.34;101114.13;1726024;82;20929;-42
2021/08/24 06:15:33;;;;;;;13.43;4.53;;;;;;;20.17;64.87;101114.22;1716712;82;21101;-41
2021/08/24 06:18:00;;;;;;;16.10;4.60;;;;;;;20.24;63.95;101116.48;1721610;82;21022;-41
2021/08/24 06:20:26;;;;;;;14.35;3.90;;;;;;;20.33;62.57;101115.63;1727020;82;21430;-39
2021/08/24 06:22:53;;;;;;;13.85;4.37;;;;;;;20.39;62.49;101110.92;1713143;82;20992;-39
2021/08/24 06:25:19;;;;;;;10.88;3.95;;;;;;;20.45;61.46;101114.17;1720054;82;21569;-42
2021/08/24 06:27:46;;;;;;;8.88;4.15;;;;;;;20.51;60.09;101107.28;1713944;82;21168;-40
2021/08/24 06:30:13;;;;;;;16.32;4.40;;;;;;;20.59;58.09;101111.72;1724407;82;22179;-41
2021/08/24 06:32:53;;;;;;;13.88;3.90;;;;;;;20.68;58.57;101109.92;1702908;82;20936;-42
2021/08/24 06:35:22;;;;;;;15.23;4.12;;;;;;;20.81;57.69;101110.63;1714362;82;21663;-40
2021/08/24 06:37:49;;;;;;;16.82;4.08;;;;;;;20.86;57.19;101115.22;1727460;82;20991;-40
2021/08/24 06:40:17;;;;;;;14.35;4.10;;;;;;;20.93;56.18;101118.36;1713581;82;21180;-40
2021/08/24 06:42:47;;;;;;;19.50;3.27;;;;;;;21.03;56.40;101120.05;1724546;82;21015;-41
2021/08/24 06:45:23;;;;;;;14.73;3.65;;;;;;;21.08;55.19;101121.97;1715066;82;21510;-40
2021/08/24 06:47:51;;;;;;;10.18;3.62;;;;;;;21.18;55.41;101116.62;1723623;82;21616;-40
2021/08/24 06:50:18;;;;;;;10.43;3.58;;;;;;;21.33;54.91;101111.45;1706087;82;20999;-42
2021/08/24 06:52:45;;;;;;;12.15;3.55;;;;;;;21.43;54.96;101115.31;1719911;82;22659;-41
2021/08/24 06:55:12;;;;;;;8.00;3.00;;;;;;;21.49;53.56;101117.61;1730185;81;21451;-40
2021/08/24 06:57:40;;;;;;;10.75;3.12;;;;;;;21.55;51.90;101120.38;1732134;82;20976;-40
2021/08/24 07:00:10;;;;;;;6.30;2.35;;;;;;;21.65;52.99;101118.13;1744176;82;20944;-42
2021/08/24 07:02:38;;;;;;;5.33;2.60;;;;;;;21.73;52.00;101119.88;1693076;82;21023;-42
2021/08/24 07:05:05;;;;;;;6.12;2.65;;;;;;;21.82;50.37;101111.45;1719972;82;21206;-41
2021/08/24 07:07:32;;;;;;;10.03;2.70;;;;;;;21.92;50.37;101116.22;1710538;82;20958;-41
2021/08/24 07:09:59;;;;;;;9.78;3.05;;;;;;;22.00;50.68;101121.90;1748357;82;20956;-42
2021/08/24 07:12:25;;;;;;;4.50;2.37;;;;;;;22.07;49.68;101112.70;1731080;82;20999;-41
2021/08/24 07:14:51;;;;;;;5.87;2.55;;;;;;;22.21;50.35;101120.30;1724708;82;20940;-42
2021/08/24 07:17:18;;;;;;;6.10;2.45;;;;;;;22.38;50.11;101116.23;1723671;82;21108;-42
2021/08/24 07:19:45;;;;;;;3.52;2.58;;;;;;;22.53;50.44;101121.12;1740011;82;21512;-42
2021/08/24 07:22:11;;;;;;;7.17;2.50;;;;;;;22.64;48.36;101116.98;1732210;82;20975;-40
2021/08/24 07:24:37;;;;;;;4.45;2.33;;;;;;;22.70;47.25;101118.42;1730521;82;20972;-43
2021/08/24 07:27:04;;;;;;;5.35;2.60;;;;;;;22.77;47.73;101121.06;1722393;82;20999;-39
2021/08/24 07:29:31;;;;;;;9.03;2.52;;;;;;;22.85;47.46;101125.89;1709905;82;21280;-43
2021/08/24 07:31:57;;;;;;;5.95;2.30;;;;;;;22.94;46.58;101126.19;1734114;80;21015;-41
2021/08/24 07:34:25;;;;;;;9.30;2.70;;;;;;;23.06;47.59;101122.41;1725389;82;21046;-41
2021/08/24 07:36:51;;;;;;;14.60;2.83;;;;;;;23.29;47.58;101117.09;1734274;82;21031;-43
2021/08/24 07:39:18;;;;;;;8.95;2.40;;;;;;;23.49;46.50;101119.80;1726280;82;20959;-42
2021/08/24 07:41:44;;;;;;;6.67;2.22;;;;;;;23.67;46.21;101120.91;1727172;82;21147;-41
2021/08/24 07:44:12;;;;;;;8.70;2.22;;;;;;;23.78;44.56;101121.55;1732717;82;21003;-43
2021/08/24 07:46:38;;;;;;;8.55;2.45;;;;;;;23.92;45.01;101122.81;1725682;82;21038;-42
2021/08/24 07:49:05;;;;;;;10.05;2.10;;;;;;;24.07;44.95;101124.97;1727574;80;21542;-43
2021/08/24 07:51:32;;;;;;;5.33;1.87;;;;;;;24.22;42.37;101124.44;1645381;85;21597;-41
2021/08/24 07:54:00;;;;;;;4.30;1.70;;;;;;;24.35;41.61;101123.15;1727774;81;21004;-43
2021/08/24 07:56:26;;;;;;;7.28;1.80;;;;;;;24.46;40.56;101116.31;1721705;82;21379;-43
2021/08/24 07:58:53;;;;;;;3.45;1.52;;;;;;;24.54;40.53;101116.63;1721813;82;20952;-43
2021/08/24 08:01:19;;;;;;;3.85;1.70;;;;;;;24.71;40.83;101107.55;1719706;82;20925;-41
2021/08/24 08:03:46;;;;;;;3.37;1.75;;;;;;;24.82;39.48;101109.03;1723150;82;20995;-43
2021/08/24 08:06:13;;;;;;;9.55;2.25;;;;;;;24.93;39.32;101112.27;1722354;82;21195;-44
2021/08/24 08:08:40;;;;;;;4.47;1.87;;;;;;;25.11;39.90;101105.30;1730066;82;20972;-43
2021/08/24 08:11:07;;;;;;;7.90;1.62;;;;;;;25.34;38.03;101101.50;1716830;81;20936;-42
2021/08/24 08:13:33;;;;;;;5.47;1.82;;;;;;;25.49;37.82;101096.94;1719517;82;20972;-43
2021/08/24 08:15:59;;;;;;;24.02;2.50;;;;;;;25.65;36.65;101092.23;1722035;82;21011;-42
2021/08/24 08:18:26;;;;;;;32.85;4.22;;;;;;;25.84;38.04;101086.92;1681977;83;21128;-43
2021/08/24 08:20:53;;;;;;;26.17;3.20;;;;;;;26.01;38.70;101083.48;1724415;82;20948;-41
2021/08/24 08:23:20;;;;;;;22.65;3.35;;;;;;;26.17;38.46;101074.80;1707561;82;21444;-40
2021/08/24 08:25:47;;;;;;;43.73;4.55;;;;;;;26.33;35.18;101077.13;1704928;82;20983;-41
2021/08/24 08:28:13;;;;;;;27.05;2.83;;;;;;;26.47;34.95;101077.91;1724024;82;21011;-40
2021/08/24 08:30:43;;;;;;;21.48;2.65;;;;;;;26.47;36.27;101072.59;1716992;82;21140;-42
2021/08/24 08:33:11;;;;;;;30.50;3.10;;;;;;;26.49;35.60;101066.69;1718269;82;20998;-42
2021/08/24 08:35:38;;;;;;;9.48;2.30;;;;;;;26.63;36.97;101067.78;1733762;82;20963;-43
2021/08/24 08:38:04;;;;;;;23.22;2.92;;;;;;;26.78;34.91;101068.89;1714086;82;21751;-43
2021/08/24 08:40:42;;;;;;;18.98;2.90;;;;;;;26.83;34.06;101072.03;1717066;82;21624;-41
2021/08/24 08:43:34;;;;;;;20.20;2.60;;;;;;;26.78;35.75;101069.75;1729480;82;21052;-42
2021/08/24 08:46:12;;;;;;;22.98;2.15;;;;;;;26.92;34.94;101067.84;1719423;82;21039;-41
2021/08/24 08:48:50;;;;;;;15.70;2.15;;;;;;;27.14;34.41;101065.66;1725008;82;21010;-41
2021/08/24 08:51:47;;;;;;;13.18;2.62;;;;;;;27.33;34.56;101064.19;1741556;82;21031;-44
2021/08/24 08:54:34;;;;;;;12.05;2.22;;;;;;;27.40;33.73;101068.89;1728687;82;21116;-43
2021/08/24 08:57:07;;;;;;;14.90;2.42;;;;;;;27.48;32.12;101069.61;1697834;82;21144;-43
2021/08/24 08:59:39;;;;;;;19.35;2.87;;;;;;;27.64;32.16;101069.70;1714486;81;20964;-43
2021/08/24 09:02:48;;;;;;;18.55;3.15;;;;;;;27.86;32.56;101066.61;1703131;82;21522;-43
2021/08/24 09:05:18;;;;;;;20.60;3.50;;;;;;;27.99;31.54;101059.79;1716038;82;21007;-43
2021/08/24 09:07:50;;;;;;;7.85;2.80;;;;;;;28.08;32.07;101056.38;1714212;82;21823;-42
2021/08/24 09:10:40;;;;;;;13.50;3.20;;;;;;;28.06;31.67;101056.50;1720843;82;21156;-44
2021/08/24 09:13:34;;;;;;;21.50;3.08;;;;;;;28.11;30.14;101052.95;1695755;82;20965;-43
2021/08/24 09:16:18;;;;;;;15.10;2.62;;;;;;;27.96;32.29;101058.25;1648875;85;21042;-43
2021/08/24 09:18:52;;;;;;;3.60;2.30;;;;;;;28.15;33.45;101050.92;1660627;83;21054;-41
2021/08/24 09:21:27;;;;;;;7.20;2.17;;;;;;;28.42;32.88;101050.89;1693226;82;20976;-41
2021/08/24 09:23:55;;;;;;;5.45;1.90;;;;;;;28.47;31.99;101047.84;1718179;82;21917;-43
2021/08/24 09:26:49;;;;;;;16.52;2.80;;;;;;;28.54;31.66;101047.66;1717680;82;21515;-43
2021/08/24 09:29:24;;;;;;;51.23;4.90;;;;;;;28.56;31.79;101049.70;1721146;82;20961;-42
2021/08/24 09:31:50;;;;;;;39.83;3.70;;;;;;;28.34;30.36;101047.55;1714190;82;21063;-40
2021/08/24 09:34:20;;;;;;;25.43;2.45;;;;;;;28.29;31.20;101041.77;1720998;82;20972;-40
2021/08/24 09:36:47;;;;;;;18.73;2.90;;;;;;;28.52;32.58;101042.45;1729796;82;21116;-42
2021/08/24 09:39:13;;;;;;;5.10;1.92;;;;;;;28.82;32.86;101044.83;1718006;82;20956;-43
2021/08/24 09:41:44;;;;;;;3.30;1.95;;;;;;;29.08;28.78;101035.51;1719124;82;20964;-43
2021/08/24 09:44:26;;;;;;;2.50;2.30;;;;;;;29.16;31.92;101038.32;1677525;82;21549;-41
2021/08/24 09:46:56;;;;;;;3.50;1.87;;;;;;;29.26;30.90;101037.02;1716694;82;21530;-43
2021/08/24 09:49:34;;;;;;;4.12;1.80;;;;;;;29.32;32.21;101035.16;1706211;82;22164;-43
2021/08/24 09:52:12;;;;;;;9.85;2.10;;;;;;;29.47;29.82;101033.44;1712105;82;21023;-42
2021/08/24 09:54:54;;;;;;;1.92;1.82;;;;;;;29.62;30.22;101021.88;1716759;82;20987;-41
2021/08/24 09:57:31;;;;;;;2.12;1.92;;;;;;;29.76;29.17;101026.80;1728752;82;21675;-41
2021/08/24 10:00:23;;;;;;;2.98;2.05;;;;;;;29.86;31.24;101029.95;1725420;82;21505;-40
2021/08/24 10:02:58;;;;;;;7.20;2.17;;;;;;;29.91;29.15;101018.35;1731693;82;21103;-43
2021/08/24 10:05:32;;;;;;;12.47;2.80;;;;;;;29.82;30.05;101018.23;1699946;82;20999;-42
2021/08/24 10:08:01;;;;;;;4.23;2.07;;;;;;;29.81;29.12;101021.05;1730254;82;21050;-44
2021/08/24 10:10:36;;;;;;;7.95;1.95;;;;;;;29.80;28.74;101020.67;1725365;82;21011;-43
2021/08/24 10:13:36;;;;;;;5.78;1.82;;;;;;;29.83;29.28;101025.25;1731218;82;20928;-43
2021/08/24 10:16:13;;;;;;;8.30;2.35;;;;;;;29.81;30.00;101021.05;1736307;82;21156;-41
2021/08/24 10:18:40;;;;;;;12.07;2.70;;;;;;;30.02;27.76;101021.39;1726337;82;20920;-41
2021/08/24 10:21:14;;;;;;;22.07;3.55;;;;;;;30.00;29.03;101020.19;1732807;82;20945;-42
2021/08/24 10:23:56;;;;;;;15.38;2.35;;;;;;;30.16;29.02;101020.11;1718421;82;21007;-43
2021/08/24 10:26:26;;;;;;;29.70;3.17;;;;;;;30.44;29.83;101016.17;1727531;82;22240;-43
2021/08/24 10:28:55;;;;;;;7.70;2.30;;;;;;;30.54;27.98;101021.00;1715280;82;21028;-42
2021/08/24 10:31:41;;;;;;;5.05;1.92;;;;;;;30.51;28.66;101015.95;1729090;82;21027;-43
2021/08/24 10:34:28;;;;;;;2.77;2.42;;;;;;;30.61;28.07;101018.12;1733725;82;20928;-44
2021/08/24 10:37:22;;;;;;;4.22;1.90;;;;;;;30.79;28.28;101021.35;1723759;82;21079;-44
2021/08/24 10:39:48;;;;;;;11.85;2.10;;;;;;;30.85;27.95;101024.77;1711930;83;21020;-42
2021/08/24 10:42:25;;;;;;;3.25;2.10;;;;;;;30.84;27.13;101020.41;1688550;83;22048;-42
2021/08/24 10:44:56;;;;;;;3.80;1.95;;;;;;;30.80;26.73;101019.85;1715983;82;21046;-41
2021/08/24 10:47:33;;;;;;;5.62;1.85;;;;;;;30.73;28.12;101013.94;1731602;82;20932;-42
2021/08/24 10:50:00;;;;;;;2.58;1.85;;;;;;;30.78;27.44;101014.33;1731981;82;20975;-41
2021/08/24 10:52:47;;;;;;;3.65;2.40;;;;;;;30.71;26.58;101011.91;1729120;82;21010;-43
2021/08/24 10:55:27;;;;;;;11.12;2.25;;;;;;;30.48;26.70;101002.39;1729667;82;21060;-41
2021/08/24 10:58:18;;;;;;;1.98;1.87;;;;;;;30.34;27.52;101002.37;1716643;82;21004;-42
2021/08/24 11:01:13;;;;;;;10.75;2.30;;;;;;;30.32;28.93;101003.52;1705179;82;20941;-41
2021/08/24 11:03:58;;;;;;;8.03;2.65;;;;;;;30.29;26.75;100999.78;1704469;84;20992;-41
2021/08/24 11:06:51;;;;;;;5.28;2.10;;;;;;;30.25;26.88;100993.40;1704680;84;20933;-42
2021/08/24 11:09:42;;;;;;;2.20;2.00;;;;;;;30.31;26.18;100990.65;1639961;83;21215;-42
2021/08/24 11:12:37;;;;;;;2.75;2.00;;;;;;;30.20;26.15;100988.17;1700310;84;20992;-41
2021/08/24 11:15:15;;;;;;;6.10;2.08;;;;;;;30.07;26.53;100981.30;1704391;83;20928;-42
2021/08/24 11:18:16;;;;;;;6.60;2.30;;;;;;;29.93;27.43;100981.22;1704912;83;21023;-41
2021/08/24 11:21:20;;;;;;;3.55;1.95;;;;;;;30.08;28.31;100980.31;1705049;84;21524;-42
2021/08/24 11:23:52;;;;;;;7.62;2.42;;;;;;;30.31;29.25;100977.78;1704978;83;21224;-42
2021/08/24 11:26:42;;;;;;;5.22;2.00;;;;;;;30.53;28.68;100976.59;1680239;84;20944;-41
2021/08/24 11:29:32;;;;;;;5.95;2.30;;;;;;;30.74;27.42;100972.88;1679794;84;22154;-40
2021/08/24 11:32:20;;;;;;;6.53;2.37;;;;;;;30.89;28.06;100971.38;1704958;84;21039;-41
2021/08/24 11:35:01;;;;;;;4.28;2.27;;;;;;;30.94;26.15;100961.07;1704778;84;20968;-41
2021/08/24 11:37:31;;;;;;;45.20;3.95;;;;;;;30.93;26.01;100959.90;1705034;84;21810;-41